Time;durP1;ratioP1;P1;durP2;ratioP2;P2;SDS_P1;SDS_P2;PMS_P1;PMS_P2;Temp;Humidity;BMP_temperature;BMP_pressure;BME280_temperature;BME280_humidity;BME280_pressure;Samples;Min_cycle;Max_cycle;Signal;HPM_P1;HPM_P2
2023/06/28 00:01:56;;;;;;;3.60;1.75;;;11.40;99.90;;;;;;4996736;28;20215;-80
2023/06/28 00:04:27;;;;;;;3.05;1.77;;;11.40;99.90;;;;;;5010074;28;20662;-80
2023/06/28 00:06:58;;;;;;;4.65;2.13;;;11.40;99.90;;;;;;5016205;28;20207;-80
2023/06/28 00:09:29;;;;;;;6.93;1.70;;;11.40;99.90;;;;;;5014335;28;20203;-80
2023/06/28 00:12:03;;;;;;;5.43;1.50;;;11.40;99.90;;;;;;5012921;28;20199;-80
2023/06/28 00:14:34;;;;;;;3.08;1.55;;;11.50;99.90;;;;;;5013066;28;20220;-80
2023/06/28 00:17:05;;;;;;;4.55;1.52;;;11.50;99.90;;;;;;5014175;28;20195;-80
2023/06/28 00:19:36;;;;;;;2.75;1.30;;;11.50;99.90;;;;;;5011897;28;20207;-81
2023/06/28 00:22:07;;;;;;;4.88;1.55;;;11.50;99.90;;;;;;5014025;28;20214;-79
2023/06/28 00:24:38;;;;;;;5.50;1.70;;;11.50;99.90;;;;;;5014622;28;20222;-79
2023/06/28 00:27:11;;;;;;;5.07;1.60;;;11.60;99.90;;;;;;5013984;28;20203;-79
2023/06/28 00:29:43;;;;;;;5.20;1.70;;;11.60;99.90;;;;;;5013530;28;20199;-79
2023/06/28 00:32:14;;;;;;;2.50;1.20;;;11.70;99.90;;;;;;5012333;28;20203;-79
2023/06/28 00:34:45;;;;;;;2.63;1.20;;;11.70;99.90;;;;;;5013574;28;20225;-79
2023/06/28 00:37:16;;;;;;;3.05;1.20;;;11.80;99.90;;;;;;5015514;28;20209;-80
2023/06/28 00:39:47;;;;;;;4.90;1.30;;;11.80;99.90;;;;;;5015032;28;20195;-79
2023/06/28 00:42:20;;;;;;;2.35;1.10;;;11.80;99.90;;;;;;5013293;28;20240;-80
2023/06/28 00:44:51;;;;;;;2.92;1.25;;;11.90;99.90;;;;;;5009456;28;20221;-80
2023/06/28 00:47:23;;;;;;;4.57;1.17;;;11.90;99.90;;;;;;5008334;28;20203;-83
2023/06/28 00:49:55;;;;;;;2.90;1.20;;;11.90;99.90;;;;;;5010219;28;20210;-81
2023/06/28 00:52:27;;;;;;;7.53;1.60;;;12.00;99.90;;;;;;5012170;28;20241;-79
2023/06/28 00:54:58;;;;;;;4.90;1.63;;;12.00;99.90;;;;;;5014097;28;20273;-79
2023/06/28 00:57:31;;;;;;;3.78;1.55;;;12.00;99.90;;;;;;5013654;28;20257;-79
2023/06/28 01:00:03;;;;;;;3.53;1.73;;;12.00;99.90;;;;;;5013605;28;20199;-79
2023/06/28 01:02:36;;;;;;;5.82;1.92;;;11.90;99.90;;;;;;5010374;28;20352;-79
2023/06/28 01:05:08;;;;;;;4.50;1.92;;;11.90;99.90;;;;;;5012436;28;20666;-79
2023/06/28 01:07:41;;;;;;;4.30;1.70;;;11.90;99.90;;;;;;5014712;28;20202;-80
2023/06/28 01:10:12;;;;;;;5.93;2.10;;;11.90;99.90;;;;;;5008795;28;20564;-82
2023/06/28 01:12:46;;;;;;;5.50;2.10;;;11.90;99.90;;;;;;5013452;28;20670;-81
2023/06/28 01:15:18;;;;;;;6.53;2.10;;;11.90;99.90;;;;;;5012957;28;20593;-81
2023/06/28 01:17:53;;;;;;;9.43;2.80;;;12.00;99.90;;;;;;5013644;28;20230;-81
2023/06/28 01:20:24;;;;;;;7.90;2.60;;;12.00;99.90;;;;;;5012415;28;20246;-82
2023/06/28 01:23:00;;;;;;;5.53;2.60;;;12.00;99.90;;;;;;5005445;28;20219;-82
2023/06/28 01:25:32;;;;;;;7.40;2.50;;;12.00;99.90;;;;;;5006705;28;20301;-81
2023/06/28 01:28:03;;;;;;;8.43;3.30;;;12.00;99.90;;;;;;5007316;28;20191;-81
2023/06/28 01:30:37;;;;;;;5.35;2.60;;;12.00;99.90;;;;;;5021918;28;20279;-81
2023/06/28 01:33:08;;;;;;;8.63;2.58;;;12.00;99.90;;;;;;5012916;28;20202;-82
2023/06/28 01:35:39;;;;;;;7.45;2.83;;;12.00;99.90;;;;;;5012771;28;20202;-80
2023/06/28 01:38:13;;;;;;;9.93;3.10;;;11.90;99.90;;;;;;5014768;28;20665;-81
2023/06/28 01:40:48;;;;;;;7.28;3.30;;;11.90;99.90;;;;;;5014746;28;20349;-80
2023/06/28 01:43:19;;;;;;;8.35;3.50;;;11.90;99.90;;;;;;5014941;28;20222;-79
2023/06/28 01:45:51;;;;;;;7.90;3.60;;;12.00;99.90;;;;;;5009083;28;20205;-79
2023/06/28 01:48:22;;;;;;;10.30;3.97;;;12.00;99.90;;;;;;5012090;28;20202;-79
2023/06/28 01:50:54;;;;;;;9.27;3.60;;;12.00;99.90;;;;;;5014398;28;20195;-79
2023/06/28 01:53:27;;;;;;;8.85;3.88;;;12.00;99.90;;;;;;5009502;28;20210;-80
2023/06/28 01:55:58;;;;;;;5.55;3.28;;;12.10;99.90;;;;;;4994628;28;20198;-79
2023/06/28 01:58:29;;;;;;;7.68;3.95;;;12.10;99.90;;;;;;5004483;28;20225;-80
2023/06/28 02:01:00;;;;;;;6.60;3.10;;;12.10;99.90;;;;;;5012875;28;20214;-79
2023/06/28 02:03:31;;;;;;;7.28;3.55;;;12.10;99.90;;;;;;5014399;28;20226;-79
2023/06/28 02:06:02;;;;;;;10.88;3.92;;;12.00;99.90;;;;;;5011712;28;20195;-80
2023/06/28 02:08:35;;;;;;;10.02;3.33;;;12.00;99.90;;;;;;5013263;28;20565;-80
2023/06/28 02:11:06;;;;;;;10.07;3.10;;;11.90;99.90;;;;;;5014067;28;20195;-79
2023/06/28 02:13:38;;;;;;;5.85;3.05;;;11.90;99.90;;;;;;5014261;28;20251;-78
2023/06/28 02:16:09;;;;;;;7.15;2.80;;;11.90;99.90;;;;;;5011952;28;20216;-79
2023/06/28 02:18:40;;;;;;;7.50;3.22;;;11.80;99.90;;;;;;5013954;28;20195;-78
2023/06/28 02:21:12;;;;;;;5.47;2.70;;;11.80;99.90;;;;;;5013723;28;20720;-78
2023/06/28 02:23:48;;;;;;;6.05;2.92;;;11.80;99.90;;;;;;5013577;28;20218;-79
2023/06/28 02:26:19;;;;;;;7.35;2.78;;;11.70;99.90;;;;;;5012798;28;20234;-79
2023/06/28 02:28:50;;;;;;;8.18;3.45;;;11.70;99.90;;;;;;5012943;28;20544;-79
2023/06/28 02:31:21;;;;;;;11.63;3.40;;;11.70;99.90;;;;;;5013770;28;20629;-79
2023/06/28 02:33:52;;;;;;;7.60;3.60;;;11.70;99.90;;;;;;5010319;28;20211;-78
2023/06/28 02:36:23;;;;;;;7.60;3.20;;;11.70;99.90;;;;;;5011407;28;20221;-78
2023/06/28 02:38:56;;;;;;;10.32;3.63;;;11.70;99.90;;;;;;5013399;28;20191;-79
2023/06/28 02:41:28;;;;;;;8.55;3.20;;;11.60;99.90;;;;;;5013513;28;20218;-80
2023/06/28 02:43:59;;;;;;;8.88;3.25;;;11.70;99.90;;;;;;5012541;28;20202;-79
2023/06/28 02:46:30;;;;;;;4.55;2.80;;;11.70;99.90;;;;;;5012698;28;20222;-80
2023/06/28 02:49:01;;;;;;;6.10;3.58;;;11.60;99.90;;;;;;5014915;28;20240;-79
2023/06/28 02:51:32;;;;;;;7.93;3.42;;;11.60;99.90;;;;;;5013951;28;20191;-78
2023/06/28 02:54:05;;;;;;;7.65;3.67;;;11.60;99.90;;;;;;5012112;28;20210;-78
2023/06/28 02:56:37;;;;;;;6.80;3.10;;;11.70;99.90;;;;;;5011278;28;20209;-78
2023/06/28 02:59:09;;;;;;;6.85;3.13;;;11.70;99.90;;;;;;5010330;28;20249;-79
2023/06/28 03:01:40;;;;;;;5.70;2.60;;;11.60;99.90;;;;;;5012602;28;20199;-78
2023/06/28 03:04:12;;;;;;;7.82;2.55;;;11.50;99.90;;;;;;5013487;28;20187;-78
2023/06/28 03:06:44;;;;;;;5.55;2.30;;;11.50;99.90;;;;;;5011795;28;20199;-78
2023/06/28 03:09:17;;;;;;;5.78;2.55;;;11.50;99.90;;;;;;5013480;28;20194;-78
2023/06/28 03:11:48;;;;;;;6.50;2.63;;;11.50;99.90;;;;;;5011522;28;20219;-78
2023/06/28 03:14:20;;;;;;;4.82;2.55;;;11.50;99.90;;;;;;5013280;28;20592;-78
2023/06/28 03:16:51;;;;;;;6.18;2.80;;;11.40;99.90;;;;;;5012353;28;20651;-78
2023/06/28 03:19:22;;;;;;;7.38;2.50;;;11.40;99.90;;;;;;5016518;28;20544;-78
2023/06/28 03:21:53;;;;;;;5.68;2.65;;;11.30;99.90;;;;;;5016920;28;20533;-78
2023/06/28 03:24:26;;;;;;;5.47;2.63;;;11.20;99.90;;;;;;5017102;28;20217;-78
2023/06/28 03:26:57;;;;;;;7.03;2.60;;;11.20;99.90;;;;;;5015472;28;20202;-78
2023/06/28 03:29:28;;;;;;;5.40;2.25;;;11.20;99.90;;;;;;5017211;28;20199;-79
2023/06/28 03:31:59;;;;;;;7.93;2.30;;;11.20;99.90;;;;;;5015223;28;20545;-78
2023/06/28 03:34:30;;;;;;;5.43;1.98;;;11.10;99.90;;;;;;5016523;28;20537;-79
2023/06/28 03:37:02;;;;;;;7.90;3.17;;;11.10;99.90;;;;;;5016201;28;20229;-78
2023/06/28 03:39:35;;;;;;;8.57;3.10;;;11.10;99.90;;;;;;5016952;28;20221;-78
2023/06/28 03:42:06;;;;;;;13.20;5.32;;;11.10;99.90;;;;;;5016738;28;20218;-79
2023/06/28 03:44:37;;;;;;;7.05;3.55;;;11.20;99.90;;;;;;5015135;28;20233;-78
2023/06/28 03:47:09;;;;;;;8.23;3.00;;;11.10;99.90;;;;;;5016395;28;20206;-78
2023/06/28 03:49:40;;;;;;;5.28;2.28;;;11.10;99.90;;;;;;5015797;28;20191;-78
2023/06/28 03:52:11;;;;;;;6.00;2.50;;;11.10;99.90;;;;;;4997698;28;20280;-76
2023/06/28 03:54:45;;;;;;;9.98;3.20;;;11.10;99.90;;;;;;4996911;28;20557;-77
2023/06/28 03:57:16;;;;;;;7.80;3.00;;;11.20;99.90;;;;;;4997055;28;20202;-77
2023/06/28 03:59:47;;;;;;;6.40;2.63;;;11.20;99.90;;;;;;4996904;28;20203;-78
2023/06/28 04:02:19;;;;;;;4.32;2.10;;;11.20;99.90;;;;;;4996723;28;20679;-79
2023/06/28 04:04:50;;;;;;;4.13;2.17;;;11.10;99.90;;;;;;5005666;28;20541;-78
2023/06/28 04:07:24;;;;;;;3.97;2.00;;;11.20;99.90;;;;;;5015752;28;20572;-78
2023/06/28 04:09:57;;;;;;;5.72;2.10;;;11.20;99.90;;;;;;5014677;28;20655;-78
2023/06/28 04:12:28;;;;;;;3.97;1.92;;;11.20;99.90;;;;;;5017041;28;20206;-78
2023/06/28 04:15:01;;;;;;;3.55;1.70;;;11.20;99.90;;;;;;5012922;28;20566;-78
2023/06/28 04:17:32;;;;;;;6.13;2.00;;;11.20;99.90;;;;;;5016297;28;20194;-78
2023/06/28 04:20:05;;;;;;;2.40;1.70;;;11.20;99.90;;;;;;5015932;28;20239;-78
2023/06/28 04:22:37;;;;;;;3.13;1.60;;;11.20;99.90;;;;;;5014454;28;20768;-78
2023/06/28 04:25:10;;;;;;;4.40;1.90;;;11.20;99.90;;;;;;5015996;28;20203;-78
2023/06/28 04:27:41;;;;;;;5.38;2.30;;;11.30;99.90;;;;;;5013331;28;20206;-78
2023/06/28 04:30:13;;;;;;;10.88;2.58;;;11.30;99.90;;;;;;4996335;28;20200;-78
2023/06/28 04:32:45;;;;;;;7.05;2.60;;;11.30;99.90;;;;;;4998119;28;20215;-78
2023/06/28 04:35:17;;;;;;;3.28;1.80;;;11.30;99.90;;;;;;5015283;28;20203;-78
2023/06/28 04:37:50;;;;;;;5.28;1.90;;;11.40;99.90;;;;;;5015780;28;20277;-77
2023/06/28 04:40:23;;;;;;;8.25;2.13;;;11.40;99.90;;;;;;5015758;28;20191;-78
2023/06/28 04:42:54;;;;;;;4.22;1.60;;;11.40;99.90;;;;;;5016362;28;20226;-78
2023/06/28 04:45:36;;;;;;;3.00;1.20;;;11.40;99.90;;;;;;5014147;28;20541;-78
2023/06/28 04:48:08;;;;;;;2.13;1.05;;;11.40;99.90;;;;;;5011684;28;20207;-78
2023/06/28 04:50:40;;;;;;;2.50;1.75;;;11.40;99.90;;;;;;5015553;28;20203;-77
2023/06/28 04:53:11;;;;;;;3.88;1.63;;;11.40;99.90;;;;;;5015548;28;20187;-78
2023/06/28 04:55:45;;;;;;;3.20;1.15;;;11.50;99.90;;;;;;5014699;28;20206;-78
2023/06/28 04:58:17;;;;;;;1.75;1.00;;;11.40;99.90;;;;;;5011736;28;20300;-78
2023/06/28 05:00:49;;;;;;;1.35;1.00;;;11.50;99.90;;;;;;5009340;28;20738;-78
2023/06/28 05:03:20;;;;;;;5.57;1.58;;;11.50;99.90;;;;;;5010416;28;20226;-79
2023/06/28 05:05:51;;;;;;;6.07;1.70;;;11.50;99.90;;;;;;5006834;28;20206;-79
2023/06/28 05:08:22;;;;;;;4.68;1.65;;;11.50;99.90;;;;;;5006490;28;20199;-78
2023/06/28 05:10:55;;;;;;;4.20;1.45;;;11.50;99.90;;;;;;5008461;28;20198;-78
2023/06/28 05:13:26;;;;;;;2.58;1.35;;;11.50;99.90;;;;;;5008490;28;20226;-79
2023/06/28 05:15:58;;;;;;;3.35;1.42;;;11.60;99.90;;;;;;5010325;28;20203;-78
2023/06/28 05:18:29;;;;;;;5.47;1.80;;;11.50;99.90;;;;;;5009241;28;20199;-78
2023/06/28 05:21:00;;;;;;;3.53;1.30;;;11.60;99.90;;;;;;5010341;28;20253;-77
2023/06/28 05:23:31;;;;;;;4.80;1.25;;;11.50;99.90;;;;;;5010374;28;20222;-77
2023/06/28 05:26:04;;;;;;;3.78;1.27;;;11.60;99.90;;;;;;5012905;28;20210;-78
2023/06/28 05:28:35;;;;;;;2.95;1.35;;;11.60;99.90;;;;;;5012438;28;20560;-78
2023/06/28 05:31:06;;;;;;;5.03;1.65;;;11.60;99.90;;;;;;5005935;28;20206;-78
2023/06/28 05:33:38;;;;;;;3.67;1.95;;;11.60;99.90;;;;;;5014513;28;20209;-78
2023/06/28 05:36:10;;;;;;;3.65;2.00;;;11.50;99.90;;;;;;5012599;28;20257;-78
2023/06/28 05:38:41;;;;;;;3.38;1.60;;;11.50;99.90;;;;;;5010303;28;20258;-78
2023/06/28 05:41:23;;;;;;;2.65;1.60;;;11.50;99.90;;;;;;5013067;28;20206;-78
2023/06/28 05:43:54;;;;;;;4.85;1.88;;;11.50;99.90;;;;;;5010806;28;20687;-78
2023/06/28 05:46:25;;;;;;;3.70;1.73;;;11.50;99.90;;;;;;5009594;28;20557;-78
2023/06/28 05:48:58;;;;;;;4.88;2.20;;;11.40;99.90;;;;;;5008521;28;20532;-79
2023/06/28 05:51:29;;;;;;;5.50;2.20;;;11.40;99.90;;;;;;5014337;28;20506;-79
2023/06/28 05:54:00;;;;;;;4.28;1.88;;;11.40;99.90;;;;;;5008869;28;20546;-78
2023/06/28 05:56:34;;;;;;;4.10;1.70;;;11.40;99.90;;;;;;5009722;28;20195;-79
2023/06/28 05:59:05;;;;;;;3.30;1.80;;;11.30;99.90;;;;;;5010635;28;20218;-79
2023/06/28 06:01:36;;;;;;;4.97;1.95;;;11.30;99.90;;;;;;5010501;28;20190;-80
2023/06/28 06:04:07;;;;;;;5.13;2.10;;;11.20;99.90;;;;;;5012185;28;20225;-80
2023/06/28 06:06:38;;;;;;;4.90;2.25;;;11.20;99.90;;;;;;5010488;28;20218;-80
2023/06/28 06:09:10;;;;;;;6.00;2.60;;;11.20;99.90;;;;;;5007862;28;20252;-80
2023/06/28 06:11:43;;;;;;;7.57;2.75;;;11.20;99.90;;;;;;5015861;28;20195;-79
2023/06/28 06:14:14;;;;;;;4.75;2.25;;;11.10;99.90;;;;;;5011323;28;20227;-79
2023/06/28 06:16:45;;;;;;;4.75;2.80;;;11.20;99.90;;;;;;5007902;28;20191;-79
2023/06/28 06:19:16;;;;;;;4.47;2.60;;;11.20;99.90;;;;;;5005768;28;20203;-79
2023/06/28 06:21:47;;;;;;;6.75;3.20;;;11.20;99.90;;;;;;5012489;28;20235;-79
2023/06/28 06:24:19;;;;;;;5.45;2.92;;;11.20;99.90;;;;;;5011689;28;20272;-79
2023/06/28 06:26:52;;;;;;;7.90;3.40;;;11.10;99.90;;;;;;5006083;28;20225;-79
2023/06/28 06:29:23;;;;;;;4.20;2.72;;;11.10;99.90;;;;;;5009836;28;20195;-79
2023/06/28 06:31:54;;;;;;;8.27;3.53;;;11.10;99.90;;;;;;5004789;28;20202;-79
2023/06/28 06:34:25;;;;;;;7.18;3.55;;;11.10;99.90;;;;;;5011598;28;20203;-80
2023/06/28 06:36:57;;;;;;;7.38;3.72;;;11.10;99.90;;;;;;5009171;28;20202;-79
2023/06/28 06:39:28;;;;;;;7.40;3.78;;;11.20;99.90;;;;;;5007164;28;20198;-79
2023/06/28 06:42:01;;;;;;;6.78;3.40;;;11.20;99.90;;;;;;5008215;28;20673;-79
2023/06/28 06:44:32;;;;;;;5.82;3.78;;;11.20;99.90;;;;;;5007567;28;20211;-79
2023/06/28 06:47:04;;;;;;;8.93;4.18;;;11.20;99.90;;;;;;5010738;28;20195;-80
2023/06/28 06:49:35;;;;;;;6.05;3.90;;;11.20;99.90;;;;;;5006504;28;20203;-79
2023/06/28 06:52:07;;;;;;;6.40;3.92;;;11.10;99.90;;;;;;5011908;28;20202;-79
2023/06/28 06:54:38;;;;;;;6.47;3.88;;;11.10;99.90;;;;;;5011159;28;20575;-79
2023/06/28 06:57:11;;;;;;;9.30;4.07;;;11.20;99.90;;;;;;5012629;28;20210;-79
2023/06/28 06:59:42;;;;;;;8.57;3.80;;;11.20;99.90;;;;;;5011740;28;20198;-79
2023/06/28 07:02:13;;;;;;;7.40;4.22;;;11.20;99.90;;;;;;5010300;28;20206;-80
2023/06/28 07:04:45;;;;;;;6.45;4.40;;;11.20;99.90;;;;;;5011934;28;20214;-80
2023/06/28 07:07:16;;;;;;;8.93;5.00;;;11.20;99.90;;;;;;5013150;28;20647;-79
2023/06/28 07:09:47;;;;;;;9.05;5.20;;;11.20;99.90;;;;;;5008004;28;20203;-80
2023/06/28 07:12:21;;;;;;;10.48;4.78;;;11.10;99.90;;;;;;5010217;28;20230;-78
2023/06/28 07:14:52;;;;;;;10.57;5.28;;;11.10;99.90;;;;;;5010138;28;20227;-79
2023/06/28 07:17:23;;;;;;;12.15;7.05;;;11.10;99.90;;;;;;5012295;28;20207;-79
2023/06/28 07:19:54;;;;;;;11.60;6.30;;;11.20;99.90;;;;;;5011193;28;20230;-79
2023/06/28 07:22:25;;;;;;;13.70;7.40;;;11.20;99.90;;;;;;5006993;28;20199;-79
2023/06/28 07:24:56;;;;;;;12.25;7.20;;;11.20;99.90;;;;;;5010185;28;20250;-79
2023/06/28 07:27:29;;;;;;;15.52;8.32;;;11.20;99.90;;;;;;5000496;28;20203;-79
2023/06/28 07:30:01;;;;;;;16.70;10.18;;;11.20;99.90;;;;;;5011440;28;20209;-79
2023/06/28 07:32:32;;;;;;;15.65;9.23;;;11.20;99.90;;;;;;5011509;28;20234;-79
2023/06/28 07:35:03;;;;;;;13.73;9.60;;;11.10;99.90;;;;;;5010628;28;20202;-80
2023/06/28 07:37:34;;;;;;;17.23;10.45;;;11.10;99.90;;;;;;5007728;28;20219;-79
2023/06/28 07:40:05;;;;;;;13.93;9.60;;;11.10;99.90;;;;;;5011969;28;20278;-79
2023/06/28 07:42:40;;;;;;;20.10;11.20;;;11.10;99.90;;;;;;5009721;28;20228;-79
2023/06/28 07:45:12;;;;;;;17.83;10.77;;;11.20;99.90;;;;;;5000538;28;20224;-79
2023/06/28 07:47:44;;;;;;;18.73;11.50;;;11.10;99.90;;;;;;5009073;28;20199;-79
2023/06/28 07:50:15;;;;;;;18.42;11.80;;;11.10;99.90;;;;;;5008492;28;20195;-79
2023/06/28 07:52:46;;;;;;;16.35;10.80;;;11.10;99.90;;;;;;5011400;28;20203;-81
2023/06/28 07:55:17;;;;;;;17.45;9.90;;;11.10;99.90;;;;;;5012695;28;20203;-80
2023/06/28 07:57:50;;;;;;;16.92;9.43;;;11.10;99.90;;;;;;5009490;28;20203;-80
2023/06/28 08:00:22;;;;;;;17.52;10.68;;;11.10;99.90;;;;;;5011350;28;20209;-80
2023/06/28 08:02:53;;;;;;;18.73;11.70;;;11.10;99.90;;;;;;5008116;28;20199;-80
2023/06/28 08:05:24;;;;;;;19.50;11.25;;;11.10;99.90;;;;;;5012799;28;20225;-80
2023/06/28 08:07:57;;;;;;;16.58;9.98;;;11.10;99.90;;;;;;5009807;28;20202;-80
2023/06/28 08:10:28;;;;;;;18.55;11.25;;;11.10;99.90;;;;;;5007309;28;20195;-80
2023/06/28 08:13:01;;;;;;;15.93;10.00;;;11.20;99.90;;;;;;5012326;28;20207;-80
2023/06/28 08:15:34;;;;;;;16.92;10.48;;;11.20;99.90;;;;;;5017602;28;20214;-81
2023/06/28 08:18:07;;;;;;;14.02;9.55;;;11.20;99.90;;;;;;5010093;28;20195;-81
2023/06/28 08:20:39;;;;;;;14.88;9.65;;;11.20;99.90;;;;;;5013713;28;20393;-80
2023/06/28 08:23:10;;;;;;;18.10;9.25;;;11.20;99.90;;;;;;5016018;28;20203;-81
2023/06/28 08:25:41;;;;;;;13.70;9.40;;;11.20;99.90;;;;;;5013807;28;20299;-81
2023/06/28 08:28:14;;;;;;;15.65;10.35;;;11.20;99.90;;;;;;5024289;28;20564;-82
2023/06/28 08:30:45;;;;;;;19.08;10.90;;;11.20;99.90;;;;;;5016083;28;20199;-81
2023/06/28 08:33:16;;;;;;;16.00;10.77;;;11.20;99.90;;;;;;5014243;28;20198;-80
2023/06/28 08:35:47;;;;;;;17.67;10.55;;;11.20;99.90;;;;;;5013484;28;20206;-80
2023/06/28 08:38:19;;;;;;;15.10;9.20;;;11.20;99.90;;;;;;5008098;28;20728;-79
2023/06/28 08:40:51;;;;;;;14.85;9.45;;;11.20;99.90;;;;;;5010921;28;20198;-80
2023/06/28 08:43:26;;;;;;;15.98;10.00;;;11.20;99.90;;;;;;5007339;28;20206;-79
2023/06/28 08:45:57;;;;;;;17.17;10.40;;;11.20;99.90;;;;;;5012599;28;20666;-80
2023/06/28 08:48:28;;;;;;;18.38;11.52;;;11.20;99.90;;;;;;5011901;28;20199;-80
2023/06/28 08:51:01;;;;;;;16.98;11.15;;;11.20;99.90;;;;;;5010019;28;20206;-79
2023/06/28 08:53:33;;;;;;;18.40;10.90;;;11.20;99.90;;;;;;5014708;28;20218;-80
2023/06/28 08:56:09;;;;;;;16.95;10.77;;;11.20;99.90;;;;;;5006114;28;20205;-82
2023/06/28 08:58:44;;;;;;;15.82;10.13;;;11.20;99.90;;;;;;5011964;28;20277;-80
2023/06/28 09:01:16;;;;;;;19.17;10.18;;;11.10;99.90;;;;;;5010323;28;20237;-79
2023/06/28 09:03:47;;;;;;;16.90;10.40;;;11.10;99.90;;;;;;5016946;28;20203;-80
2023/06/28 09:06:19;;;;;;;15.18;9.93;;;11.10;99.90;;;;;;5004556;28;20199;-80
2023/06/28 09:08:51;;;;;;;14.90;10.23;;;11.10;99.90;;;;;;5006951;28;20195;-81
2023/06/28 09:11:22;;;;;;;15.20;9.68;;;11.10;99.90;;;;;;5014608;28;20572;-80
2023/06/28 09:13:56;;;;;;;13.18;8.95;;;11.10;99.90;;;;;;5014435;28;20222;-80
2023/06/28 09:16:27;;;;;;;13.80;9.05;;;11.10;99.90;;;;;;5011490;28;20190;-81
2023/06/28 09:18:58;;;;;;;13.35;8.20;;;11.10;99.90;;;;;;5014855;28;20221;-80
2023/06/28 09:21:31;;;;;;;12.20;8.60;;;11.10;99.90;;;;;;5014588;28;20257;-80
2023/06/28 09:24:04;;;;;;;12.32;7.78;;;11.10;99.90;;;;;;5003580;28;20276;-80
2023/06/28 09:26:35;;;;;;;13.15;7.30;;;11.00;99.90;;;;;;5019478;28;20559;-80
2023/06/28 09:29:13;;;;;;;13.88;6.45;;;11.00;99.90;;;;;;5020009;28;20199;-80
2023/06/28 09:31:46;;;;;;;14.32;7.05;;;11.00;99.90;;;;;;5003893;28;20202;-80
2023/06/28 09:34:23;;;;;;;8.68;5.85;;;10.90;99.90;;;;;;5012490;28;20261;-80
2023/06/28 09:36:56;;;;;;;9.90;6.10;;;10.90;99.90;;;;;;5014606;28;20210;-80
2023/06/28 09:39:28;;;;;;;7.93;5.80;;;10.90;99.90;;;;;;5010410;28;20199;-80
2023/06/28 09:41:59;;;;;;;10.02;5.82;;;11.00;99.90;;;;;;5014665;28;20214;-81
2023/06/28 09:44:35;;;;;;;7.95;4.93;;;11.00;99.90;;;;;;5013943;28;20218;-81
2023/06/28 09:47:07;;;;;;;8.43;5.10;;;11.00;99.90;;;;;;5012296;28;20289;-81
2023/06/28 09:49:38;;;;;;;7.80;5.50;;;11.00;99.90;;;;;;5009088;28;20194;-80
2023/06/28 09:52:10;;;;;;;7.63;5.40;;;11.00;99.90;;;;;;5012899;28;20198;-80
2023/06/28 09:54:44;;;;;;;9.10;5.07;;;11.00;99.90;;;;;;5005867;28;20199;-80
2023/06/28 09:57:16;;;;;;;10.85;5.88;;;11.00;99.90;;;;;;5014084;28;20728;-80
2023/06/28 09:59:49;;;;;;;9.15;5.68;;;11.00;99.90;;;;;;5014119;28;20647;-80
2023/06/28 10:02:23;;;;;;;9.55;5.30;;;11.00;99.90;;;;;;5012941;28;20202;-80
2023/06/28 10:04:57;;;;;;;7.05;5.30;;;10.90;99.90;;;;;;5004001;28;20223;-81
2023/06/28 10:07:29;;;;;;;7.03;5.05;;;10.90;99.90;;;;;;5013888;28;20194;-80
2023/06/28 10:10:01;;;;;;;9.10;5.72;;;10.80;99.90;;;;;;5012328;28;20209;-80
2023/06/28 10:12:33;;;;;;;8.82;4.85;;;10.80;99.90;;;;;;5011987;28;20195;-79
2023/06/28 10:15:09;;;;;;;7.45;4.90;;;10.80;99.90;;;;;;5004934;28;20237;-80
2023/06/28 10:17:40;;;;;;;8.10;4.60;;;10.80;99.90;;;;;;5003796;28;20201;-80
2023/06/28 10:20:12;;;;;;;7.95;5.05;;;10.90;99.90;;;;;;5012897;28;20321;-81
2023/06/28 10:22:43;;;;;;;7.63;4.88;;;10.90;99.90;;;;;;5013067;28;20671;-80
2023/06/28 10:25:16;;;;;;;8.95;5.22;;;10.90;99.90;;;;;;5005804;28;20230;-80
2023/06/28 10:27:48;;;;;;;7.82;4.78;;;10.90;99.90;;;;;;5022953;28;20226;-80
2023/06/28 10:30:22;;;;;;;8.32;5.35;;;10.90;99.90;;;;;;5012056;28;20234;-79
2023/06/28 10:32:55;;;;;;;10.35;5.22;;;10.90;99.90;;;;;;5010641;28;20203;-80
2023/06/28 10:35:26;;;;;;;7.05;4.60;;;10.90;99.90;;;;;;5006997;28;20253;-80
2023/06/28 10:38:00;;;;;;;7.07;4.75;;;10.90;99.90;;;;;;5014294;28;20619;-80
2023/06/28 10:40:31;;;;;;;5.55;3.83;;;10.90;99.90;;;;;;5009353;28;20199;-81
2023/06/28 10:43:03;;;;;;;7.05;3.85;;;10.90;99.90;;;;;;5012122;28;20230;-80
2023/06/28 10:45:40;;;;;;;6.28;3.92;;;10.90;99.90;;;;;;5010136;28;20219;-81
2023/06/28 10:48:13;;;;;;;5.57;4.15;;;10.90;99.90;;;;;;5008407;28;20195;-80
2023/06/28 10:50:45;;;;;;;6.43;3.78;;;10.90;99.90;;;;;;5009271;28;20225;-80
2023/06/28 10:53:25;;;;;;;6.20;3.88;;;10.90;99.90;;;;;;5005116;28;20199;-81
2023/06/28 10:56:13;;;;;;;5.65;3.58;;;10.90;99.90;;;;;;5012368;28;20230;-80
2023/06/28 10:58:45;;;;;;;4.45;3.40;;;10.90;99.90;;;;;;5006556;28;20199;-81
2023/06/28 11:01:35;;;;;;;4.30;3.47;;;10.80;99.90;;;;;;5010233;28;20717;-80
2023/06/28 11:04:22;;;;;;;5.78;3.50;;;10.80;99.90;;;;;;5010738;28;20233;-80
2023/06/28 11:07:12;;;;;;;5.50;3.80;;;10.80;99.90;;;;;;5013105;28;20538;-81
2023/06/28 11:09:43;;;;;;;5.07;3.65;;;10.80;99.90;;;;;;5012899;28;20209;-81
2023/06/28 11:12:21;;;;;;;6.25;3.17;;;10.80;99.90;;;;;;5011586;28;20715;-80
2023/06/28 11:15:08;;;;;;;4.10;3.15;;;10.80;99.90;;;;;;5007406;28;20313;-82
2023/06/28 11:17:41;;;;;;;3.65;2.78;;;10.80;99.90;;;;;;5009313;28;20208;-82
2023/06/28 11:20:15;;;;;;;3.50;2.65;;;10.80;99.90;;;;;;5009632;28;20313;-82
2023/06/28 11:22:53;;;;;;;3.35;2.95;;;10.80;99.90;;;;;;5001445;28;20205;-80
2023/06/28 11:25:29;;;;;;;4.97;3.17;;;10.80;99.90;;;;;;5009991;28;20234;-80
2023/06/28 11:28:02;;;;;;;4.10;2.80;;;10.80;99.90;;;;;;5010213;28;20249;-80
2023/06/28 11:30:54;;;;;;;3.30;2.47;;;10.80;99.90;;;;;;5011464;28;20217;-80
2023/06/28 11:33:28;;;;;;;3.33;2.30;;;10.80;99.90;;;;;;5012210;28;20199;-81
2023/06/28 11:35:59;;;;;;;4.15;2.35;;;10.80;99.90;;;;;;5009432;28;20203;-82
2023/06/28 11:38:31;;;;;;;3.75;2.30;;;10.70;99.90;;;;;;5009835;28;20202;-84
2023/06/28 11:41:02;;;;;;;3.35;2.10;;;10.70;99.90;;;;;;5015487;28;20647;-80
2023/06/28 11:43:33;;;;;;;3.47;1.90;;;10.70;99.90;;;;;;5013357;28;20203;-79
2023/06/28 11:46:04;;;;;;;3.55;2.13;;;10.70;99.90;;;;;;5004652;28;20219;-79
2023/06/28 11:48:38;;;;;;;2.60;1.77;;;10.70;99.90;;;;;;5015301;28;20199;-79
2023/06/28 11:51:09;;;;;;;3.42;1.75;;;10.70;99.90;;;;;;5016079;28;20648;-78
2023/06/28 11:53:41;;;;;;;2.17;1.70;;;10.70;99.90;;;;;;5013581;28;20241;-79
2023/06/28 11:56:13;;;;;;;3.03;1.90;;;10.70;99.90;;;;;;5012329;28;20199;-79
2023/06/28 11:58:44;;;;;;;2.67;1.70;;;10.70;99.90;;;;;;5015374;28;20195;-79
2023/06/28 12:01:24;;;;;;;1.73;1.38;;;10.70;99.90;;;;;;5004228;28;20195;-79
2023/06/28 12:03:58;;;;;;;2.67;1.50;;;10.70;99.90;;;;;;5016683;28;20198;-79
2023/06/28 12:06:29;;;;;;;1.90;1.50;;;10.70;99.90;;;;;;5009667;28;20273;-82
2023/06/28 12:09:01;;;;;;;2.08;1.23;;;10.70;99.90;;;;;;5013514;28;20210;-82
2023/06/28 12:11:32;;;;;;;2.10;1.30;;;10.70;99.90;;;;;;5009296;28;20202;-82
2023/06/28 12:14:07;;;;;;;2.80;1.10;;;10.70;99.90;;;;;;5008365;28;20223;-80
2023/06/28 12:16:40;;;;;;;1.20;1.02;;;10.70;99.90;;;;;;5004921;28;20275;-81
2023/06/28 12:19:13;;;;;;;1.80;1.08;;;10.70;99.90;;;;;;5014188;28;20221;-83
2023/06/28 12:21:45;;;;;;;1.10;1.00;;;10.70;99.90;;;;;;4909834;28;3041753;-83
2023/06/28 12:24:19;;;;;;;2.33;1.20;;;10.70;99.90;;;;;;5027820;28;20197;-82
2023/06/28 12:26:54;;;;;;;1.90;1.10;;;10.60;99.90;;;;;;5015394;28;20348;-83
2023/06/28 12:29:25;;;;;;;1.85;1.40;;;10.60;99.90;;;;;;5003738;28;20205;-84
2023/06/28 12:31:58;;;;;;;2.35;1.50;;;10.60;99.90;;;;;;5015838;28;20569;-80
2023/06/28 12:34:34;;;;;;;1.98;1.50;;;10.60;99.90;;;;;;5015872;28;20201;-83
2023/06/28 12:37:07;;;;;;;2.00;1.58;;;10.60;99.90;;;;;;5013689;28;20684;-84
2023/06/28 12:39:39;;;;;;;2.28;1.35;;;10.60;99.90;;;;;;5015926;28;20215;-83
2023/06/28 12:42:12;;;;;;;1.65;1.33;;;10.60;99.90;;;;;;5015530;28;20207;-83
2023/06/28 12:44:52;;;;;;;1.70;1.38;;;10.70;99.90;;;;;;5015790;28;20222;-82
2023/06/28 12:47:25;;;;;;;1.88;1.15;;;10.70;99.90;;;;;;5014515;28;20286;-85
2023/06/28 12:50:00;;;;;;;2.30;1.50;;;10.70;99.90;;;;;;5013897;28;20211;-84
2023/06/28 12:52:32;;;;;;;2.05;1.27;;;10.70;99.90;;;;;;5015671;28;20195;-84
2023/06/28 12:55:04;;;;;;;2.10;1.23;;;10.70;99.90;;;;;;5014595;28;20199;-83
2023/06/28 12:57:35;;;;;;;1.50;1.20;;;10.70;99.90;;;;;;5013870;28;20199;-84
2023/06/28 13:00:07;;;;;;;2.90;1.40;;;10.70;99.90;;;;;;5025175;28;20207;-84
2023/06/28 13:02:39;;;;;;;2.72;1.60;;;10.70;99.90;;;;;;5033578;28;20559;-84
2023/06/28 13:05:13;;;;;;;2.25;1.75;;;10.70;99.90;;;;;;5015462;28;20227;-85
2023/06/28 13:07:44;;;;;;;2.47;1.52;;;10.70;99.90;;;;;;5013458;28;20221;-85
2023/06/28 13:10:15;;;;;;;3.60;1.88;;;10.70;99.90;;;;;;5016049;28;20195;-80